sensor_id;sensor_type;location;lat;lon;timestamp;pressure;altitude;pressure_sealevel;temperature;humidity
17521;BME280;8878;-33.370;-70.552;2023-02-04T00:02:03;91635.38;;;30.51;33.08
17521;BME280;8878;-33.370;-70.552;2023-02-04T00:04:33;91640.69;;;30.65;32.70
17521;BME280;8878;-33.370;-70.552;2023-02-04T00:07:02;91636.84;;;30.59;32.89
17521;BME280;8878;-33.370;-70.552;2023-02-04T00:09:31;91637.38;;;30.88;32.87
17521;BME280;8878;-33.370;-70.552;2023-02-04T00:12:02;91637.72;;;30.45;33.47
17521;BME280;8878;-33.370;-70.552;2023-02-04T00:14:44;91642.59;;;30.16;33.70
17521;BME280;8878;-33.370;-70.552;2023-02-04T00:17:15;91642.00;;;30.43;33.32
17521;BME280;8878;-33.370;-70.552;2023-02-04T00:19:44;91647.66;;;30.14;34.00
17521;BME280;8878;-33.370;-70.552;2023-02-04T00:22:15;91644.09;;;30.21;33.41
17521;BME280;8878;-33.370;-70.552;2023-02-04T00:24:44;91634.44;;;30.16;33.49
17521;BME280;8878;-33.370;-70.552;2023-02-04T00:27:16;91652.53;;;30.41;34.24
17521;BME280;8878;-33.370;-70.552;2023-02-04T00:29:47;91648.97;;;30.54;33.71
17521;BME280;8878;-33.370;-70.552;2023-02-04T00:32:17;91643.47;;;30.58;33.83
17521;BME280;8878;-33.370;-70.552;2023-02-04T00:34:46;91652.78;;;30.60;33.84
17521;BME280;8878;-33.370;-70.552;2023-02-04T00:37:15;91656.22;;;30.68;33.09
17521;BME280;8878;-33.370;-70.552;2023-02-04T00:39:45;91656.53;;;30.25;34.64
17521;BME280;8878;-33.370;-70.552;2023-02-04T00:42:14;91663.19;;;30.17;34.82
17521;BME280;8878;-33.370;-70.552;2023-02-04T00:44:43;91656.00;;;30.41;34.42
17521;BME280;8878;-33.370;-70.552;2023-02-04T00:47:14;91662.59;;;30.51;34.58
17521;BME280;8878;-33.370;-70.552;2023-02-04T00:49:43;91655.66;;;30.39;34.92
17521;BME280;8878;-33.370;-70.552;2023-02-04T00:52:13;91658.09;;;30.26;35.43
17521;BME280;8878;-33.370;-70.552;2023-02-04T00:54:42;91662.47;;;30.06;34.30
17521;BME280;8878;-33.370;-70.552;2023-02-04T00:57:12;91665.63;;;30.01;35.63
17521;BME280;8878;-33.370;-70.552;2023-02-04T00:59:41;91663.66;;;30.05;35.73
17521;BME280;8878;-33.370;-70.552;2023-02-04T01:02:10;91666.03;;;29.96;35.25
17521;BME280;8878;-33.370;-70.552;2023-02-04T01:04:41;91662.16;;;29.90;33.73
17521;BME280;8878;-33.370;-70.552;2023-02-04T01:07:10;91664.03;;;30.07;34.28
17521;BME280;8878;-33.370;-70.552;2023-02-04T01:09:40;91663.22;;;30.10;35.57
17521;BME280;8878;-33.370;-70.552;2023-02-04T01:12:09;91663.66;;;30.05;35.45
17521;BME280;8878;-33.370;-70.552;2023-02-04T01:14:39;91664.84;;;30.01;34.65
17521;BME280;8878;-33.370;-70.552;2023-02-04T01:17:08;91668.78;;;29.89;35.70
17521;BME280;8878;-33.370;-70.552;2023-02-04T01:19:40;91675.84;;;29.72;35.75
17521;BME280;8878;-33.370;-70.552;2023-02-04T01:22:11;91667.34;;;29.59;35.98
17521;BME280;8878;-33.370;-70.552;2023-02-04T01:24:40;91673.97;;;29.55;36.28
17521;BME280;8878;-33.370;-70.552;2023-02-04T01:27:10;91676.28;;;29.56;36.38
17521;BME280;8878;-33.370;-70.552;2023-02-04T01:29:41;91678.59;;;29.58;35.93
17521;BME280;8878;-33.370;-70.552;2023-02-04T01:32:11;91671.31;;;29.41;35.04
17521;BME280;8878;-33.370;-70.552;2023-02-04T01:34:42;91674.03;;;29.30;35.66
17521;BME280;8878;-33.370;-70.552;2023-02-04T01:37:12;91668.97;;;29.39;35.73
17521;BME280;8878;-33.370;-70.552;2023-02-04T01:39:41;91683.34;;;29.40;35.29
17521;BME280;8878;-33.370;-70.552;2023-02-04T01:42:11;91686.47;;;29.24;35.41
17521;BME280;8878;-33.370;-70.552;2023-02-04T01:44:40;91681.78;;;29.28;35.00
17521;BME280;8878;-33.370;-70.552;2023-02-04T01:47:10;91701.19;;;29.44;35.23
17521;BME280;8878;-33.370;-70.552;2023-02-04T01:49:41;91691.09;;;29.45;35.37
17521;BME280;8878;-33.370;-70.552;2023-02-04T01:52:11;91683.75;;;29.17;36.13
17521;BME280;8878;-33.370;-70.552;2023-02-04T01:54:41;91694.66;;;28.67;36.28
17521;BME280;8878;-33.370;-70.552;2023-02-04T01:57:14;91696.97;;;28.65;36.58
17521;BME280;8878;-33.370;-70.552;2023-02-04T01:59:45;91698.16;;;28.86;36.55
17521;BME280;8878;-33.370;-70.552;2023-02-04T02:02:42;91711.75;;;28.75;36.77
17521;BME280;8878;-33.370;-70.552;2023-02-04T02:05:16;91705.91;;;28.55;37.08
17521;BME280;8878;-33.370;-70.552;2023-02-04T02:07:47;91708.19;;;28.25;37.53
17521;BME280;8878;-33.370;-70.552;2023-02-04T02:10:17;91711.69;;;28.43;37.48
17521;BME280;8878;-33.370;-70.552;2023-02-04T02:12:47;91715.19;;;28.65;37.32
17521;BME280;8878;-33.370;-70.552;2023-02-04T02:15:18;91712.91;;;28.70;38.98
17521;BME280;8878;-33.370;-70.552;2023-02-04T02:17:47;91711.31;;;28.59;39.52
17521;BME280;8878;-33.370;-70.552;2023-02-04T02:20:22;91717.13;;;28.36;39.54
17521;BME280;8878;-33.370;-70.552;2023-02-04T02:23:00;91708.56;;;28.23;39.50
17521;BME280;8878;-33.370;-70.552;2023-02-04T02:25:42;91709.75;;;28.29;39.36
17521;BME280;8878;-33.370;-70.552;2023-02-04T02:28:15;91707.84;;;28.40;38.71
17521;BME280;8878;-33.370;-70.552;2023-02-04T02:30:45;91710.94;;;28.39;40.50
17521;BME280;8878;-33.370;-70.552;2023-02-04T02:33:16;91712.84;;;28.28;40.44
17521;BME280;8878;-33.370;-70.552;2023-02-04T02:35:46;91713.25;;;28.30;40.56
17521;BME280;8878;-33.370;-70.552;2023-02-04T02:38:17;91717.50;;;28.20;40.27
17521;BME280;8878;-33.370;-70.552;2023-02-04T02:40:49;91713.56;;;28.11;40.61
17521;BME280;8878;-33.370;-70.552;2023-02-04T02:43:21;91713.91;;;27.95;40.67
17521;BME280;8878;-33.370;-70.552;2023-02-04T02:45:52;91707.69;;;27.84;41.53
17521;BME280;8878;-33.370;-70.552;2023-02-04T02:48:23;91704.97;;;27.80;41.70
17521;BME280;8878;-33.370;-70.552;2023-02-04T02:50:52;91716.59;;;27.81;42.40
17521;BME280;8878;-33.370;-70.552;2023-02-04T02:53:21;91706.13;;;27.76;42.06
17521;BME280;8878;-33.370;-70.552;2023-02-04T02:55:55;91716.41;;;27.42;42.87
17521;BME280;8878;-33.370;-70.552;2023-02-04T02:58:27;91712.44;;;27.28;42.49
17521;BME280;8878;-33.370;-70.552;2023-02-04T03:00:59;91704.75;;;27.38;42.62
17521;BME280;8878;-33.370;-70.552;2023-02-04T03:03:30;91711.72;;;27.39;42.21
17521;BME280;8878;-33.370;-70.552;2023-02-04T03:06:02;91705.53;;;27.35;43.28
17521;BME280;8878;-33.370;-70.552;2023-02-04T03:08:33;91712.44;;;27.25;43.08
17521;BME280;8878;-33.370;-70.552;2023-02-04T03:11:06;91710.06;;;27.16;42.17
17521;BME280;8878;-33.370;-70.552;2023-02-04T03:13:38;91706.56;;;27.12;43.58
17521;BME280;8878;-33.370;-70.552;2023-02-04T03:16:08;91707.69;;;27.08;43.27
17521;BME280;8878;-33.370;-70.552;2023-02-04T03:18:38;91710.09;;;27.23;42.23
17521;BME280;8878;-33.370;-70.552;2023-02-04T03:21:09;91710.91;;;27.27;42.53
17521;BME280;8878;-33.370;-70.552;2023-02-04T03:23:38;91701.25;;;27.26;43.33
17521;BME280;8878;-33.370;-70.552;2023-02-04T03:26:09;91699.28;;;27.23;43.64
17521;BME280;8878;-33.370;-70.552;2023-02-04T03:28:39;91695.81;;;27.26;43.11
17521;BME280;8878;-33.370;-70.552;2023-02-04T03:31:09;91697.34;;;27.20;43.33
17521;BME280;8878;-33.370;-70.552;2023-02-04T03:33:38;91694.88;;;26.98;44.42
17521;BME280;8878;-33.370;-70.552;2023-02-04T03:36:09;91702.22;;;26.97;43.51
17521;BME280;8878;-33.370;-70.552;2023-02-04T03:38:39;91691.03;;;26.99;42.51
17521;BME280;8878;-33.370;-70.552;2023-02-04T03:41:10;91693.72;;;26.99;43.12
17521;BME280;8878;-33.370;-70.552;2023-02-04T03:43:41;91696.41;;;26.95;43.92
17521;BME280;8878;-33.370;-70.552;2023-02-04T03:46:10;91700.59;;;26.85;44.11
17521;BME280;8878;-33.370;-70.552;2023-02-04T03:48:39;91697.88;;;26.85;44.22
17521;BME280;8878;-33.370;-70.552;2023-02-04T03:51:09;91694.06;;;26.94;43.45
17521;BME280;8878;-33.370;-70.552;2023-02-04T03:53:38;91690.25;;;26.98;43.49
17521;BME280;8878;-33.370;-70.552;2023-02-04T03:56:10;91694.47;;;26.96;43.94
17521;BME280;8878;-33.370;-70.552;2023-02-04T03:58:40;91685.56;;;26.95;43.87
17521;BME280;8878;-33.370;-70.552;2023-02-04T04:01:09;91687.13;;;26.93;43.63
17521;BME280;8878;-33.370;-70.552;2023-02-04T04:03:38;91696.00;;;26.93;44.13
17521;BME280;8878;-33.370;-70.552;2023-02-04T04:06:08;91693.16;;;26.79;44.37
17521;BME280;8878;-33.370;-70.552;2023-02-04T04:08:37;91691.59;;;26.71;44.45
17521;BME280;8878;-33.370;-70.552;2023-02-04T04:11:06;91694.19;;;26.60;44.46
17521;BME280;8878;-33.370;-70.552;2023-02-04T04:13:37;91690.28;;;26.54;45.20
17521;BME280;8878;-33.370;-70.552;2023-02-04T04:16:07;91690.66;;;26.52;45.32
17521;BME280;8878;-33.370;-70.552;2023-02-04T04:18:36;91693.25;;;26.35;46.14
17521;BME280;8878;-33.370;-70.552;2023-02-04T04:21:06;91691.69;;;26.37;46.25
17521;BME280;8878;-33.370;-70.552;2023-02-04T04:23:35;91685.91;;;26.35;45.80
17521;BME280;8878;-33.370;-70.552;2023-02-04T04:26:05;91680.88;;;26.34;45.29
17521;BME280;8878;-33.370;-70.552;2023-02-04T04:28:36;91697.56;;;26.43;44.99
17521;BME280;8878;-33.370;-70.552;2023-02-04T04:31:05;91686.34;;;26.44;45.69
17521;BME280;8878;-33.370;-70.552;2023-02-04T04:33:35;91687.00;;;26.31;46.18
17521;BME280;8878;-33.370;-70.552;2023-02-04T04:36:06;91689.84;;;26.08;46.33
17521;BME280;8878;-33.370;-70.552;2023-02-04T04:38:35;91691.53;;;26.23;46.21
17521;BME280;8878;-33.370;-70.552;2023-02-04T04:41:05;91686.47;;;26.18;45.84
17521;BME280;8878;-33.370;-70.552;2023-02-04T04:43:34;91681.13;;;26.22;46.10
17521;BME280;8878;-33.370;-70.552;2023-02-04T04:46:05;91676.88;;;26.21;45.62
17521;BME280;8878;-33.370;-70.552;2023-02-04T04:48:35;91685.34;;;26.19;45.58
17521;BME280;8878;-33.370;-70.552;2023-02-04T04:51:04;91687.69;;;26.21;45.34
17521;BME280;8878;-33.370;-70.552;2023-02-04T04:53:34;91681.06;;;26.15;45.69
17521;BME280;8878;-33.370;-70.552;2023-02-04T04:56:03;91690.75;;;26.23;45.08
17521;BME280;8878;-33.370;-70.552;2023-02-04T04:58:33;91673.34;;;26.17;45.23
17521;BME280;8878;-33.370;-70.552;2023-02-04T05:01:04;91678.75;;;26.17;45.38
17521;BME280;8878;-33.370;-70.552;2023-02-04T05:03:34;91674.06;;;26.10;45.72
17521;BME280;8878;-33.370;-70.552;2023-02-04T05:06:03;91675.97;;;26.06;45.74
17521;BME280;8878;-33.370;-70.552;2023-02-04T05:08:32;91675.06;;;25.95;46.28
17521;BME280;8878;-33.370;-70.552;2023-02-04T05:11:02;91670.78;;;25.90;46.32
17521;BME280;8878;-33.370;-70.552;2023-02-04T05:13:31;91671.06;;;25.82;47.08
17521;BME280;8878;-33.370;-70.552;2023-02-04T05:16:00;91667.66;;;25.88;46.57
17521;BME280;8878;-33.370;-70.552;2023-02-04T05:18:32;91665.25;;;25.80;47.03
17521;BME280;8878;-33.370;-70.552;2023-02-04T05:21:01;91664.41;;;25.72;46.55
17521;BME280;8878;-33.370;-70.552;2023-02-04T05:23:31;91661.25;;;25.63;46.29
17521;BME280;8878;-33.370;-70.552;2023-02-04T05:26:00;91665.03;;;25.58;46.28
17521;BME280;8878;-33.370;-70.552;2023-02-04T05:28:29;91655.84;;;25.63;46.21
17521;BME280;8878;-33.370;-70.552;2023-02-04T05:30:58;91650.88;;;25.68;46.02
17521;BME280;8878;-33.370;-70.552;2023-02-04T05:33:28;91639.94;;;25.58;45.55
17521;BME280;8878;-33.370;-70.552;2023-02-04T05:35:59;91633.69;;;25.50;45.48
17521;BME280;8878;-33.370;-70.552;2023-02-04T05:38:28;91638.22;;;25.43;45.31
17521;BME280;8878;-33.370;-70.552;2023-02-04T05:40:57;91635.22;;;25.51;46.27
17521;BME280;8878;-33.370;-70.552;2023-02-04T05:43:27;91634.91;;;25.56;46.89
17521;BME280;8878;-33.370;-70.552;2023-02-04T05:45:57;91629.44;;;25.49;47.17
17521;BME280;8878;-33.370;-70.552;2023-02-04T05:48:27;91622.41;;;25.45;47.93
17521;BME280;8878;-33.370;-70.552;2023-02-04T05:50:58;91620.56;;;25.52;47.71
17521;BME280;8878;-33.370;-70.552;2023-02-04T05:53:27;91614.81;;;25.54;47.85
17521;BME280;8878;-33.370;-70.552;2023-02-04T05:55:58;91613.66;;;25.55;45.79
17521;BME280;8878;-33.370;-70.552;2023-02-04T05:58:27;91610.84;;;25.78;44.65
17521;BME280;8878;-33.370;-70.552;2023-02-04T06:00:59;91602.41;;;25.86;43.78
17521;BME280;8878;-33.370;-70.552;2023-02-04T06:03:29;91607.13;;;25.93;45.45
17521;BME280;8878;-33.370;-70.552;2023-02-04T06:06:00;91607.13;;;25.93;44.80
17521;BME280;8878;-33.370;-70.552;2023-02-04T06:08:29;91606.22;;;25.82;45.47
17521;BME280;8878;-33.370;-70.552;2023-02-04T06:10:59;91600.03;;;25.78;45.81
17521;BME280;8878;-33.370;-70.552;2023-02-04T06:13:28;91599.63;;;25.76;45.91
17521;BME280;8878;-33.370;-70.552;2023-02-04T06:15:57;91605.97;;;25.57;45.57
17521;BME280;8878;-33.370;-70.552;2023-02-04T06:18:28;91609.13;;;25.62;45.63
17521;BME280;8878;-33.370;-70.552;2023-02-04T06:20:57;91604.16;;;25.64;46.59
17521;BME280;8878;-33.370;-70.552;2023-02-04T06:23:28;91604.91;;;25.28;46.10
17521;BME280;8878;-33.370;-70.552;2023-02-04T06:25:57;91612.00;;;25.43;45.54
17521;BME280;8878;-33.370;-70.552;2023-02-04T06:28:26;91610.53;;;25.49;44.70
17521;BME280;8878;-33.370;-70.552;2023-02-04T06:30:56;91612.09;;;25.50;46.14
17521;BME280;8878;-33.370;-70.552;2023-02-04T06:33:25;91611.44;;;25.60;45.15
17521;BME280;8878;-33.370;-70.552;2023-02-04T06:35:54;91617.78;;;25.79;43.90
17521;BME280;8878;-33.370;-70.552;2023-02-04T06:38:24;91609.56;;;25.68;44.54
17521;BME280;8878;-33.370;-70.552;2023-02-04T06:40:55;91610.28;;;25.61;45.95
17521;BME280;8878;-33.370;-70.552;2023-02-04T06:43:25;91609.44;;;25.57;46.22
17521;BME280;8878;-33.370;-70.552;2023-02-04T06:45:54;91616.31;;;25.51;46.60
17521;BME280;8878;-33.370;-70.552;2023-02-04T06:48:23;91614.28;;;25.41;47.05
17521;BME280;8878;-33.370;-70.552;2023-02-04T06:50:53;91607.19;;;25.26;47.13
17521;BME280;8878;-33.370;-70.552;2023-02-04T06:53:23;91602.66;;;25.37;47.34
17521;BME280;8878;-33.370;-70.552;2023-02-04T06:55:54;91606.06;;;25.64;46.46
17521;BME280;8878;-33.370;-70.552;2023-02-04T06:58:23;91605.00;;;25.76;45.44
17521;BME280;8878;-33.370;-70.552;2023-02-04T07:00:52;91598.09;;;25.45;46.33
17521;BME280;8878;-33.370;-70.552;2023-02-04T07:03:22;91604.72;;;25.14;47.21
17521;BME280;8878;-33.370;-70.552;2023-02-04T07:05:51;91602.25;;;25.02;47.21
17521;BME280;8878;-33.370;-70.552;2023-02-04T07:08:20;91599.63;;;25.05;47.48
17521;BME280;8878;-33.370;-70.552;2023-02-04T07:10:50;91602.16;;;24.94;47.68
17521;BME280;8878;-33.370;-70.552;2023-02-04T07:13:21;91604.75;;;24.87;47.66
17521;BME280;8878;-33.370;-70.552;2023-02-04T07:15:50;91609.19;;;24.73;48.48
17521;BME280;8878;-33.370;-70.552;2023-02-04T07:18:20;91607.25;;;24.73;48.31
17521;BME280;8878;-33.370;-70.552;2023-02-04T07:20:49;91605.44;;;24.81;48.06
17521;BME280;8878;-33.370;-70.552;2023-02-04T07:23:18;91600.13;;;24.88;47.42
17521;BME280;8878;-33.370;-70.552;2023-02-04T07:25:50;91603.69;;;24.92;47.88
17521;BME280;8878;-33.370;-70.552;2023-02-04T07:28:23;91603.56;;;24.85;48.12
17521;BME280;8878;-33.370;-70.552;2023-02-04T07:30:52;91612.06;;;24.87;48.10
17521;BME280;8878;-33.370;-70.552;2023-02-04T07:33:22;91606.53;;;24.76;48.49
17521;BME280;8878;-33.370;-70.552;2023-02-04T07:35:51;91609.66;;;24.78;47.92
17521;BME280;8878;-33.370;-70.552;2023-02-04T07:38:20;91609.56;;;24.71;47.94
17521;BME280;8878;-33.370;-70.552;2023-02-04T07:40:49;91613.81;;;24.46;47.95
17521;BME280;8878;-33.370;-70.552;2023-02-04T07:43:19;91612.34;;;24.48;48.28
17521;BME280;8878;-33.370;-70.552;2023-02-04T07:45:50;91618.69;;;24.63;48.29
17521;BME280;8878;-33.370;-70.552;2023-02-04T07:48:20;91629.06;;;24.61;48.26
17521;BME280;8878;-33.370;-70.552;2023-02-04T07:50:49;91623.94;;;24.52;48.39
17521;BME280;8878;-33.370;-70.552;2023-02-04T07:53:21;91623.13;;;24.48;48.87
17521;BME280;8878;-33.370;-70.552;2023-02-04T07:55:50;91627.72;;;24.48;48.73
17521;BME280;8878;-33.370;-70.552;2023-02-04T07:58:19;91628.16;;;24.50;48.63
17521;BME280;8878;-33.370;-70.552;2023-02-04T08:00:51;91630.66;;;24.66;47.46
17521;BME280;8878;-33.370;-70.552;2023-02-04T08:03:20;91627.69;;;24.71;48.18
17521;BME280;8878;-33.370;-70.552;2023-02-04T08:05:50;91635.91;;;24.81;48.19
17521;BME280;8878;-33.370;-70.552;2023-02-04T08:08:19;91636.38;;;24.61;47.46
17521;BME280;8878;-33.370;-70.552;2023-02-04T08:10:48;91635.69;;;24.67;48.20
17521;BME280;8878;-33.370;-70.552;2023-02-04T08:13:17;91640.03;;;24.72;48.30
17521;BME280;8878;-33.370;-70.552;2023-02-04T08:15:47;91634.13;;;24.66;48.50
17521;BME280;8878;-33.370;-70.552;2023-02-04T08:18:18;91644.81;;;24.59;49.56
17521;BME280;8878;-33.370;-70.552;2023-02-04T08:20:47;91644.63;;;24.45;49.90
17521;BME280;8878;-33.370;-70.552;2023-02-04T08:23:17;91646.19;;;24.46;49.20
17521;BME280;8878;-33.370;-70.552;2023-02-04T08:25:46;91646.19;;;24.46;49.69
17521;BME280;8878;-33.370;-70.552;2023-02-04T08:28:15;91653.78;;;24.37;49.69
17521;BME280;8878;-33.370;-70.552;2023-02-04T08:30:44;91654.38;;;24.27;50.15
17521;BME280;8878;-33.370;-70.552;2023-02-04T08:33:14;91666.75;;;24.31;49.49
17521;BME280;8878;-33.370;-70.552;2023-02-04T08:35:45;91660.31;;;24.36;48.97
17521;BME280;8878;-33.370;-70.552;2023-02-04T08:38:14;91662.88;;;24.29;49.14
17521;BME280;8878;-33.370;-70.552;2023-02-04T08:40:43;91667.03;;;24.23;49.07
17521;BME280;8878;-33.370;-70.552;2023-02-04T08:43:13;91673.13;;;24.19;48.91
17521;BME280;8878;-33.370;-70.552;2023-02-04T08:45:42;91678.63;;;24.27;48.82
17521;BME280;8878;-33.370;-70.552;2023-02-04T08:48:11;91673.13;;;24.19;48.82
17521;BME280;8878;-33.370;-70.552;2023-02-04T08:50:40;91679.16;;;24.13;49.02
17521;BME280;8878;-33.370;-70.552;2023-02-04T08:53:12;91677.94;;;24.10;49.42
17521;BME280;8878;-33.370;-70.552;2023-02-04T08:55:43;91689.16;;;24.12;49.24
17521;BME280;8878;-33.370;-70.552;2023-02-04T08:58:14;91698.00;;;24.13;49.39
17521;BME280;8878;-33.370;-70.552;2023-02-04T09:00:43;91692.19;;;24.11;49.75
17521;BME280;8878;-33.370;-70.552;2023-02-04T09:03:13;91698.59;;;24.03;50.10
17521;BME280;8878;-33.370;-70.552;2023-02-04T09:05:42;91703.63;;;24.04;50.29
17521;BME280;8878;-33.370;-70.552;2023-02-04T09:08:13;91700.38;;;23.95;50.52
17521;BME280;8878;-33.370;-70.552;2023-02-04T09:10:54;91698.22;;;23.81;50.50
17521;BME280;8878;-33.370;-70.552;2023-02-04T09:13:24;91700.00;;;23.93;50.57
17521;BME280;8878;-33.370;-70.552;2023-02-04T09:15:54;91714.16;;;23.90;51.50
17521;BME280;8878;-33.370;-70.552;2023-02-04T09:18:23;91716.16;;;23.93;51.69
17521;BME280;8878;-33.370;-70.552;2023-02-04T09:20:53;91707.66;;;23.91;50.98
17521;BME280;8878;-33.370;-70.552;2023-02-04T09:23:24;91719.06;;;23.85;51.41
17521;BME280;8878;-33.370;-70.552;2023-02-04T09:25:53;91712.78;;;23.77;51.71
17521;BME280;8878;-33.370;-70.552;2023-02-04T09:28:22;91719.28;;;23.76;50.79
17521;BME280;8878;-33.370;-70.552;2023-02-04T09:30:54;91721.69;;;23.81;51.33
17521;BME280;8878;-33.370;-70.552;2023-02-04T09:33:23;91722.00;;;23.76;51.68
17521;BME280;8878;-33.370;-70.552;2023-02-04T09:35:52;91723.41;;;23.70;51.75
17521;BME280;8878;-33.370;-70.552;2023-02-04T09:38:23;91727.19;;;23.65;51.04
17521;BME280;8878;-33.370;-70.552;2023-02-04T09:40:54;91739.44;;;23.63;50.98
17521;BME280;8878;-33.370;-70.552;2023-02-04T09:43:26;91733.22;;;23.59;52.07
17521;BME280;8878;-33.370;-70.552;2023-02-04T09:45:56;91736.19;;;23.54;52.23
17521;BME280;8878;-33.370;-70.552;2023-02-04T09:48:26;91745.31;;;23.49;52.82
17521;BME280;8878;-33.370;-70.552;2023-02-04T09:51:03;91734.22;;;23.51;52.23
17521;BME280;8878;-33.370;-70.552;2023-02-04T09:53:35;91734.22;;;23.51;52.64
17521;BME280;8878;-33.370;-70.552;2023-02-04T09:56:07;91740.72;;;23.50;52.44
17521;BME280;8878;-33.370;-70.552;2023-02-04T09:58:38;91743.13;;;23.55;52.06
17521;BME280;8878;-33.370;-70.552;2023-02-04T10:01:12;91740.88;;;23.57;52.16
17521;BME280;8878;-33.370;-70.552;2023-02-04T10:03:43;91751.78;;;23.64;51.58
17521;BME280;8878;-33.370;-70.552;2023-02-04T10:06:15;91752.25;;;23.69;51.34
17521;BME280;8878;-33.370;-70.552;2023-02-04T10:08:47;91752.22;;;23.66;51.46
17521;BME280;8878;-33.370;-70.552;2023-02-04T10:11:18;91745.66;;;23.67;51.91
17521;BME280;8878;-33.370;-70.552;2023-02-04T10:13:49;91752.47;;;23.61;51.91
17521;BME280;8878;-33.370;-70.552;2023-02-04T10:16:21;91758.06;;;23.71;50.26
17521;BME280;8878;-33.370;-70.552;2023-02-04T10:18:56;91763.94;;;23.77;49.03
17521;BME280;8878;-33.370;-70.552;2023-02-04T10:21:27;91770.69;;;23.87;50.05
17521;BME280;8878;-33.370;-70.552;2023-02-04T10:24:01;91776.56;;;23.92;49.75
17521;BME280;8878;-33.370;-70.552;2023-02-04T10:26:32;91778.84;;;23.71;49.36
17521;BME280;8878;-33.370;-70.552;2023-02-04T10:29:03;91784.81;;;23.80;49.78
17521;BME280;8878;-33.370;-70.552;2023-02-04T10:31:34;91784.94;;;23.87;49.88
17521;BME280;8878;-33.370;-70.552;2023-02-04T10:34:05;91785.47;;;23.96;49.21
17521;BME280;8878;-33.370;-70.552;2023-02-04T10:36:35;91791.16;;;23.91;49.56
17521;BME280;8878;-33.370;-70.552;2023-02-04T10:39:11;91796.97;;;23.93;49.67
17521;BME280;8878;-33.370;-70.552;2023-02-04T10:41:45;91809.03;;;23.99;49.78
17521;BME280;8878;-33.370;-70.552;2023-02-04T10:44:17;91809.59;;;24.08;49.43
17521;BME280;8878;-33.370;-70.552;2023-02-04T10:46:47;91814.59;;;24.10;49.33
17521;BME280;8878;-33.370;-70.552;2023-02-04T10:49:21;91819.28;;;24.13;49.72
17521;BME280;8878;-33.370;-70.552;2023-02-04T10:51:52;91820.28;;;24.24;49.51
17521;BME280;8878;-33.370;-70.552;2023-02-04T10:54:27;91822.72;;;24.29;49.28
17521;BME280;8878;-33.370;-70.552;2023-02-04T10:57:06;91821.63;;;24.34;49.73
17521;BME280;8878;-33.370;-70.552;2023-02-04T10:59:36;91835.66;;;24.43;48.26
17521;BME280;8878;-33.370;-70.552;2023-02-04T11:02:30;91848.84;;;24.48;48.25
17521;BME280;8878;-33.370;-70.552;2023-02-04T11:05:00;91845.63;;;24.62;47.15
17521;BME280;8878;-33.370;-70.552;2023-02-04T11:07:30;91848.50;;;24.72;47.71
17521;BME280;8878;-33.370;-70.552;2023-02-04T11:10:01;91856.47;;;24.65;47.02
17521;BME280;8878;-33.370;-70.552;2023-02-04T11:12:39;91855.56;;;24.57;46.92
17521;BME280;8878;-33.370;-70.552;2023-02-04T11:15:37;91856.63;;;24.53;46.58
17521;BME280;8878;-33.370;-70.552;2023-02-04T11:18:09;91853.91;;;24.72;47.01
17521;BME280;8878;-33.370;-70.552;2023-02-04T11:20:49;91868.41;;;24.45;46.87
17521;BME280;8878;-33.370;-70.552;2023-02-04T11:23:35;91866.44;;;24.84;46.03
17521;BME280;8878;-33.370;-70.552;2023-02-04T11:26:09;91869.16;;;25.07;46.25
17521;BME280;8878;-33.370;-70.552;2023-02-04T11:28:45;91866.25;;;25.19;45.74
17521;BME280;8878;-33.370;-70.552;2023-02-04T11:31:28;91873.91;;;25.17;45.59
17521;BME280;8878;-33.370;-70.552;2023-02-04T11:34:23;91880.13;;;24.94;46.09
17521;BME280;8878;-33.370;-70.552;2023-02-04T11:37:10;91882.09;;;25.20;45.61
17521;BME280;8878;-33.370;-70.552;2023-02-04T11:39:42;91886.72;;;25.20;45.52
17521;BME280;8878;-33.370;-70.552;2023-02-04T11:42:21;91891.31;;;25.19;45.78
17521;BME280;8878;-33.370;-70.552;2023-02-04T11:44:52;91897.47;;;24.93;46.42
17521;BME280;8878;-33.370;-70.552;2023-02-04T11:47:23;91903.38;;;25.03;46.40
17521;BME280;8878;-33.370;-70.552;2023-02-04T11:49:56;91901.03;;;25.01;46.16
17521;BME280;8878;-33.370;-70.552;2023-02-04T11:52:27;91910.66;;;24.99;46.96
17521;BME280;8878;-33.370;-70.552;2023-02-04T11:54:58;91919.56;;;25.03;46.67
17521;BME280;8878;-33.370;-70.552;2023-02-04T11:57:29;91929.56;;;24.60;47.73
17521;BME280;8878;-33.370;-70.552;2023-02-04T12:00:10;91925.00;;;24.41;47.77
17521;BME280;8878;-33.370;-70.552;2023-02-04T12:02:43;91928.97;;;24.28;48.22
17521;BME280;8878;-33.370;-70.552;2023-02-04T12:05:13;91933.16;;;24.26;48.03
17521;BME280;8878;-33.370;-70.552;2023-02-04T12:07:44;91937.19;;;24.54;47.73
17521;BME280;8878;-33.370;-70.552;2023-02-04T12:10:21;91936.53;;;24.61;48.31
17521;BME280;8878;-33.370;-70.552;2023-02-04T12:12:54;91933.72;;;24.54;47.97
17521;BME280;8878;-33.370;-70.552;2023-02-04T12:15:29;91937.66;;;24.79;47.23
17521;BME280;8878;-33.370;-70.552;2023-02-04T12:18:03;91941.47;;;24.98;47.25
17521;BME280;8878;-33.370;-70.552;2023-02-04T12:20:33;91939.31;;;25.07;46.63
17521;BME280;8878;-33.370;-70.552;2023-02-04T12:23:03;91937.16;;;25.39;45.98
17521;BME280;8878;-33.370;-70.552;2023-02-04T12:25:34;91940.69;;;25.20;46.20
17521;BME280;8878;-33.370;-70.552;2023-02-04T12:28:05;91952.19;;;24.94;47.05
17521;BME280;8878;-33.370;-70.552;2023-02-04T12:30:34;91954.38;;;25.08;46.40
17521;BME280;8878;-33.370;-70.552;2023-02-04T12:33:04;91945.44;;;25.49;46.42
17521;BME280;8878;-33.370;-70.552;2023-02-04T12:35:36;91962.38;;;25.01;47.09
17521;BME280;8878;-33.370;-70.552;2023-02-04T12:38:08;91953.53;;;25.49;45.68
17521;BME280;8878;-33.370;-70.552;2023-02-04T12:40:39;91957.78;;;25.50;45.26
17521;BME280;8878;-33.370;-70.552;2023-02-04T12:43:10;91958.69;;;25.58;44.81
17521;BME280;8878;-33.370;-70.552;2023-02-04T12:45:40;91960.03;;;25.22;46.53
17521;BME280;8878;-33.370;-70.552;2023-02-04T12:48:12;91960.19;;;25.78;46.02
17521;BME280;8878;-33.370;-70.552;2023-02-04T12:50:42;91959.97;;;25.64;45.35
17521;BME280;8878;-33.370;-70.552;2023-02-04T12:56:33;91959.66;;;25.69;45.46
17521;BME280;8878;-33.370;-70.552;2023-02-04T12:59:04;91961.91;;;25.67;45.94
17521;BME280;8878;-33.370;-70.552;2023-02-04T13:01:35;91964.03;;;25.54;45.90
17521;BME280;8878;-33.370;-70.552;2023-02-04T13:04:06;91967.16;;;25.56;46.57